sensor_id;sensor_type;location;lat;lon;timestamp;temperature;humidity
40434;DHT22;26146;51.114;5.654;2022-12-17T00:02:39;-0.90;99.90
40434;DHT22;26146;51.114;5.654;2022-12-17T00:06:59;-0.90;99.90
40434;DHT22;26146;51.114;5.654;2022-12-17T00:11:18;-1.10;99.90
40434;DHT22;26146;51.114;5.654;2022-12-17T00:15:38;-1.10;99.90
40434;DHT22;26146;51.114;5.654;2022-12-17T00:19:57;-1.00;99.90
40434;DHT22;26146;51.114;5.654;2022-12-17T00:24:17;-1.10;99.90
40434;DHT22;26146;51.114;5.654;2022-12-17T00:28:37;-1.00;99.90
40434;DHT22;26146;51.114;5.654;2022-12-17T00:32:56;-0.80;99.90
40434;DHT22;26146;51.114;5.654;2022-12-17T00:37:17;-1.00;99.90
40434;DHT22;26146;51.114;5.654;2022-12-17T00:41:36;-1.30;99.90
40434;DHT22;26146;51.114;5.654;2022-12-17T00:45:56;-1.40;99.90
40434;DHT22;26146;51.114;5.654;2022-12-17T00:50:16;-1.40;99.90
40434;DHT22;26146;51.114;5.654;2022-12-17T00:54:36;-1.30;99.90
40434;DHT22;26146;51.114;5.654;2022-12-17T00:58:55;-1.30;99.90
40434;DHT22;26146;51.114;5.654;2022-12-17T01:03:15;-1.20;99.90
40434;DHT22;26146;51.114;5.654;2022-12-17T01:07:35;-1.40;99.90
40434;DHT22;26146;51.114;5.654;2022-12-17T01:11:54;-1.60;99.90
40434;DHT22;26146;51.114;5.654;2022-12-17T01:16:13;-1.40;99.90
40434;DHT22;26146;51.114;5.654;2022-12-17T01:20:33;-1.60;99.90
40434;DHT22;26146;51.114;5.654;2022-12-17T01:24:53;-1.70;99.90
40434;DHT22;26146;51.114;5.654;2022-12-17T01:29:12;-1.80;99.90
40434;DHT22;26146;51.114;5.654;2022-12-17T01:33:32;-1.80;99.90
40434;DHT22;26146;51.114;5.654;2022-12-17T01:37:51;-1.90;99.90
40434;DHT22;26146;51.114;5.654;2022-12-17T01:42:11;-1.60;99.90
40434;DHT22;26146;51.114;5.654;2022-12-17T01:46:46;-1.50;99.90
40434;DHT22;26146;51.114;5.654;2022-12-17T01:51:07;-1.50;99.90
40434;DHT22;26146;51.114;5.654;2022-12-17T01:55:27;-1.30;99.90
40434;DHT22;26146;51.114;5.654;2022-12-17T01:59:56;-1.10;99.90
40434;DHT22;26146;51.114;5.654;2022-12-17T02:04:19;-0.90;99.90
40434;DHT22;26146;51.114;5.654;2022-12-17T02:13:29;-0.80;99.90
40434;DHT22;26146;51.114;5.654;2022-12-17T02:17:53;-0.60;99.90
40434;DHT22;26146;51.114;5.654;2022-12-17T02:22:24;-0.50;99.90
40434;DHT22;26146;51.114;5.654;2022-12-17T02:26:54;-0.50;99.90
40434;DHT22;26146;51.114;5.654;2022-12-17T02:31:15;-0.40;99.90
40434;DHT22;26146;51.114;5.654;2022-12-17T02:35:48;-0.20;99.90
40434;DHT22;26146;51.114;5.654;2022-12-17T02:40:08;-0.20;99.90
40434;DHT22;26146;51.114;5.654;2022-12-17T02:44:35;-0.10;99.90
40434;DHT22;26146;51.114;5.654;2022-12-17T02:48:55;0.00;99.90
40434;DHT22;26146;51.114;5.654;2022-12-17T02:53:15;0.10;99.90
40434;DHT22;26146;51.114;5.654;2022-12-17T02:57:34;0.10;99.90
40434;DHT22;26146;51.114;5.654;2022-12-17T03:01:54;0.30;99.90
40434;DHT22;26146;51.114;5.654;2022-12-17T03:06:14;0.40;99.90
40434;DHT22;26146;51.114;5.654;2022-12-17T03:10:33;0.40;99.90
40434;DHT22;26146;51.114;5.654;2022-12-17T03:14:53;0.30;99.90
40434;DHT22;26146;51.114;5.654;2022-12-17T03:19:12;0.40;99.90
40434;DHT22;26146;51.114;5.654;2022-12-17T03:23:32;0.50;99.90
40434;DHT22;26146;51.114;5.654;2022-12-17T03:27:51;0.60;99.90
40434;DHT22;26146;51.114;5.654;2022-12-17T03:32:11;0.60;99.90
40434;DHT22;26146;51.114;5.654;2022-12-17T03:36:30;0.70;99.90
40434;DHT22;26146;51.114;5.654;2022-12-17T03:40:50;0.70;99.90
40434;DHT22;26146;51.114;5.654;2022-12-17T03:45:09;0.80;99.90
40434;DHT22;26146;51.114;5.654;2022-12-17T03:49:29;0.80;99.90
40434;DHT22;26146;51.114;5.654;2022-12-17T03:53:48;0.90;99.90
40434;DHT22;26146;51.114;5.654;2022-12-17T03:58:08;0.80;99.90
40434;DHT22;26146;51.114;5.654;2022-12-17T04:02:27;0.80;99.90
40434;DHT22;26146;51.114;5.654;2022-12-17T04:06:47;0.90;99.90
40434;DHT22;26146;51.114;5.654;2022-12-17T04:11:06;1.00;99.90
40434;DHT22;26146;51.114;5.654;2022-12-17T04:15:26;0.90;99.90
40434;DHT22;26146;51.114;5.654;2022-12-17T04:19:46;0.90;99.90
40434;DHT22;26146;51.114;5.654;2022-12-17T04:24:05;0.90;99.90
40434;DHT22;26146;51.114;5.654;2022-12-17T04:28:25;0.90;99.90
40434;DHT22;26146;51.114;5.654;2022-12-17T04:32:44;0.90;99.90
40434;DHT22;26146;51.114;5.654;2022-12-17T04:37:04;1.00;99.90
40434;DHT22;26146;51.114;5.654;2022-12-17T04:41:23;0.90;99.90
40434;DHT22;26146;51.114;5.654;2022-12-17T04:45:43;0.80;99.90
40434;DHT22;26146;51.114;5.654;2022-12-17T04:50:02;1.00;99.90
40434;DHT22;26146;51.114;5.654;2022-12-17T04:54:22;1.00;99.90
40434;DHT22;26146;51.114;5.654;2022-12-17T04:58:41;1.10;99.90
40434;DHT22;26146;51.114;5.654;2022-12-17T05:03:19;1.00;99.90
40434;DHT22;26146;51.114;5.654;2022-12-17T05:07:38;0.90;99.90
40434;DHT22;26146;51.114;5.654;2022-12-17T05:11:58;1.00;99.90
40434;DHT22;26146;51.114;5.654;2022-12-17T05:16:17;0.80;99.90
40434;DHT22;26146;51.114;5.654;2022-12-17T05:20:37;0.90;99.90
40434;DHT22;26146;51.114;5.654;2022-12-17T05:24:56;0.80;99.90
40434;DHT22;26146;51.114;5.654;2022-12-17T05:29:16;0.80;99.90
40434;DHT22;26146;51.114;5.654;2022-12-17T05:33:35;0.80;99.90
40434;DHT22;26146;51.114;5.654;2022-12-17T05:38:02;0.80;99.90
40434;DHT22;26146;51.114;5.654;2022-12-17T05:42:21;0.90;99.90
40434;DHT22;26146;51.114;5.654;2022-12-17T05:46:41;0.80;99.90
40434;DHT22;26146;51.114;5.654;2022-12-17T05:51:00;0.90;99.90
40434;DHT22;26146;51.114;5.654;2022-12-17T05:55:20;1.00;99.90
40434;DHT22;26146;51.114;5.654;2022-12-17T05:59:39;0.90;99.90
40434;DHT22;26146;51.114;5.654;2022-12-17T06:03:59;0.90;99.90
40434;DHT22;26146;51.114;5.654;2022-12-17T06:08:19;0.90;99.90
40434;DHT22;26146;51.114;5.654;2022-12-17T06:12:38;0.90;99.90
40434;DHT22;26146;51.114;5.654;2022-12-17T06:16:58;0.90;99.90
40434;DHT22;26146;51.114;5.654;2022-12-17T06:21:18;0.90;99.90
40434;DHT22;26146;51.114;5.654;2022-12-17T06:25:37;1.00;99.90
40434;DHT22;26146;51.114;5.654;2022-12-17T06:29:57;1.00;99.90
40434;DHT22;26146;51.114;5.654;2022-12-17T06:34:17;1.10;99.90
40434;DHT22;26146;51.114;5.654;2022-12-17T06:38:36;1.20;99.90
40434;DHT22;26146;51.114;5.654;2022-12-17T06:42:56;1.10;99.90
40434;DHT22;26146;51.114;5.654;2022-12-17T06:47:16;1.20;99.90
40434;DHT22;26146;51.114;5.654;2022-12-17T06:51:35;1.30;99.90
40434;DHT22;26146;51.114;5.654;2022-12-17T06:55:58;1.20;99.90
40434;DHT22;26146;51.114;5.654;2022-12-17T07:00:18;1.20;99.90
40434;DHT22;26146;51.114;5.654;2022-12-17T07:04:38;1.40;99.90
40434;DHT22;26146;51.114;5.654;2022-12-17T07:08:57;1.40;99.90
40434;DHT22;26146;51.114;5.654;2022-12-17T07:13:17;1.40;99.90
40434;DHT22;26146;51.114;5.654;2022-12-17T07:17:37;1.40;99.90
40434;DHT22;26146;51.114;5.654;2022-12-17T07:21:56;1.30;99.90
40434;DHT22;26146;51.114;5.654;2022-12-17T07:26:16;1.40;99.90
40434;DHT22;26146;51.114;5.654;2022-12-17T07:30:35;1.30;99.90
40434;DHT22;26146;51.114;5.654;2022-12-17T07:34:58;1.20;99.90
40434;DHT22;26146;51.114;5.654;2022-12-17T07:39:17;1.20;99.90
40434;DHT22;26146;51.114;5.654;2022-12-17T07:43:37;1.40;99.90
40434;DHT22;26146;51.114;5.654;2022-12-17T07:47:56;1.20;99.90
40434;DHT22;26146;51.114;5.654;2022-12-17T07:52:15;1.50;99.90
40434;DHT22;26146;51.114;5.654;2022-12-17T07:56:37;1.30;99.90
40434;DHT22;26146;51.114;5.654;2022-12-17T08:01:00;1.20;99.90
40434;DHT22;26146;51.114;5.654;2022-12-17T08:05:20;1.00;99.90
40434;DHT22;26146;51.114;5.654;2022-12-17T08:09:39;1.00;99.90
40434;DHT22;26146;51.114;5.654;2022-12-17T08:13:58;1.30;99.90
40434;DHT22;26146;51.114;5.654;2022-12-17T08:18:18;1.50;99.90
40434;DHT22;26146;51.114;5.654;2022-12-17T08:22:38;1.20;99.90
40434;DHT22;26146;51.114;5.654;2022-12-17T08:26:57;1.40;99.90
40434;DHT22;26146;51.114;5.654;2022-12-17T08:31:16;1.20;99.90
40434;DHT22;26146;51.114;5.654;2022-12-17T08:35:36;1.20;99.90
40434;DHT22;26146;51.114;5.654;2022-12-17T08:39:55;1.20;99.90
40434;DHT22;26146;51.114;5.654;2022-12-17T08:44:15;1.10;99.90
40434;DHT22;26146;51.114;5.654;2022-12-17T08:48:38;1.20;99.90
40434;DHT22;26146;51.114;5.654;2022-12-17T08:52:59;1.20;99.90
40434;DHT22;26146;51.114;5.654;2022-12-17T08:57:18;1.10;99.90
40434;DHT22;26146;51.114;5.654;2022-12-17T09:01:38;1.20;99.90
40434;DHT22;26146;51.114;5.654;2022-12-17T09:05:58;1.20;99.90
40434;DHT22;26146;51.114;5.654;2022-12-17T09:10:17;1.30;99.90
40434;DHT22;26146;51.114;5.654;2022-12-17T09:14:37;1.40;99.90
40434;DHT22;26146;51.114;5.654;2022-12-17T09:18:56;1.40;99.90
40434;DHT22;26146;51.114;5.654;2022-12-17T09:23:16;1.50;99.90
40434;DHT22;26146;51.114;5.654;2022-12-17T09:27:38;1.60;99.90
40434;DHT22;26146;51.114;5.654;2022-12-17T09:31:58;1.50;99.90
40434;DHT22;26146;51.114;5.654;2022-12-17T09:36:18;1.60;99.90
40434;DHT22;26146;51.114;5.654;2022-12-17T09:40:39;1.40;99.90
40434;DHT22;26146;51.114;5.654;2022-12-17T09:45:07;1.50;99.90
40434;DHT22;26146;51.114;5.654;2022-12-17T09:49:29;1.30;99.90
40434;DHT22;26146;51.114;5.654;2022-12-17T09:53:52;1.30;99.90
40434;DHT22;26146;51.114;5.654;2022-12-17T09:58:24;1.50;99.90
40434;DHT22;26146;51.114;5.654;2022-12-17T10:02:44;1.50;99.90
40434;DHT22;26146;51.114;5.654;2022-12-17T10:07:13;1.40;99.90
40434;DHT22;26146;51.114;5.654;2022-12-17T10:11:34;1.50;99.90
40434;DHT22;26146;51.114;5.654;2022-12-17T10:15:53;1.60;99.90
40434;DHT22;26146;51.114;5.654;2022-12-17T10:20:23;1.60;99.90
40434;DHT22;26146;51.114;5.654;2022-12-17T10:24:45;1.90;99.90
40434;DHT22;26146;51.114;5.654;2022-12-17T10:29:16;1.90;99.90
40434;DHT22;26146;51.114;5.654;2022-12-17T10:33:38;1.80;99.90
40434;DHT22;26146;51.114;5.654;2022-12-17T10:38:20;1.70;99.90
40434;DHT22;26146;51.114;5.654;2022-12-17T10:42:40;1.80;99.90
40434;DHT22;26146;51.114;5.654;2022-12-17T10:47:00;1.70;99.90
40434;DHT22;26146;51.114;5.654;2022-12-17T10:55:55;1.90;99.90
40434;DHT22;26146;51.114;5.654;2022-12-17T11:04:51;2.00;99.90
40434;DHT22;26146;51.114;5.654;2022-12-17T11:13:44;1.80;99.90
40434;DHT22;26146;51.114;5.654;2022-12-17T11:18:05;1.90;99.90
40434;DHT22;26146;51.114;5.654;2022-12-17T11:22:52;1.80;99.90
40434;DHT22;26146;51.114;5.654;2022-12-17T11:27:18;1.50;99.90
40434;DHT22;26146;51.114;5.654;2022-12-17T11:40:49;1.90;99.90
40434;DHT22;26146;51.114;5.654;2022-12-17T11:45:28;1.60;99.90
40434;DHT22;26146;51.114;5.654;2022-12-17T11:50:12;1.40;99.90
40434;DHT22;26146;51.114;5.654;2022-12-17T11:54:44;1.30;99.90
40434;DHT22;26146;51.114;5.654;2022-12-17T12:08:25;1.60;99.90
40434;DHT22;26146;51.114;5.654;2022-12-17T12:12:55;1.70;99.90
40434;DHT22;26146;51.114;5.654;2022-12-17T12:17:29;1.50;99.90
40434;DHT22;26146;51.114;5.654;2022-12-17T12:22:13;1.60;99.90
40434;DHT22;26146;51.114;5.654;2022-12-17T12:31:23;1.50;99.90
40434;DHT22;26146;51.114;5.654;2022-12-17T12:35:45;1.50;99.90
40434;DHT22;26146;51.114;5.654;2022-12-17T12:40:26;1.70;99.90
40434;DHT22;26146;51.114;5.654;2022-12-17T12:45:05;1.80;99.90
40434;DHT22;26146;51.114;5.654;2022-12-17T12:49:33;1.80;99.90
40434;DHT22;26146;51.114;5.654;2022-12-17T12:53:56;1.60;99.90
40434;DHT22;26146;51.114;5.654;2022-12-17T12:58:30;1.60;99.90
40434;DHT22;26146;51.114;5.654;2022-12-17T13:02:50;1.60;99.90
40434;DHT22;26146;51.114;5.654;2022-12-17T13:07:27;1.60;99.90
40434;DHT22;26146;51.114;5.654;2022-12-17T13:11:35;1.50;99.90
40434;DHT22;26146;51.114;5.654;2022-12-17T13:15:40;1.40;99.90
40434;DHT22;26146;51.114;5.654;2022-12-17T13:23:56;1.20;99.90
40434;DHT22;26146;51.114;5.654;2022-12-17T13:28:01;1.20;99.90
40434;DHT22;26146;51.114;5.654;2022-12-17T13:36:16;1.30;99.90
40434;DHT22;26146;51.114;5.654;2022-12-17T13:44:25;1.50;99.90
40434;DHT22;26146;51.114;5.654;2022-12-17T13:48:31;1.40;99.90
40434;DHT22;26146;51.114;5.654;2022-12-17T13:52:34;1.40;99.90
40434;DHT22;26146;51.114;5.654;2022-12-17T13:56:36;1.50;99.90
40434;DHT22;26146;51.114;5.654;2022-12-17T14:00:37;1.30;99.90
40434;DHT22;26146;51.114;5.654;2022-12-17T14:04:39;1.20;99.90
40434;DHT22;26146;51.114;5.654;2022-12-17T14:08:41;1.20;99.90
40434;DHT22;26146;51.114;5.654;2022-12-17T14:12:42;1.10;99.90
40434;DHT22;26146;51.114;5.654;2022-12-17T14:16:46;1.10;99.90
40434;DHT22;26146;51.114;5.654;2022-12-17T14:20:48;1.10;99.90
40434;DHT22;26146;51.114;5.654;2022-12-17T14:24:50;1.20;99.90
40434;DHT22;26146;51.114;5.654;2022-12-17T14:28:53;1.20;99.90
40434;DHT22;26146;51.114;5.654;2022-12-17T14:32:54;1.00;99.90
40434;DHT22;26146;51.114;5.654;2022-12-17T14:36:57;1.00;99.90
40434;DHT22;26146;51.114;5.654;2022-12-17T14:41:07;0.90;99.90
40434;DHT22;26146;51.114;5.654;2022-12-17T14:45:31;0.90;99.90
40434;DHT22;26146;51.114;5.654;2022-12-17T14:50:00;1.00;99.90
40434;DHT22;26146;51.114;5.654;2022-12-17T14:58:20;0.70;99.90
40434;DHT22;26146;51.114;5.654;2022-12-17T15:02:27;0.60;99.90
40434;DHT22;26146;51.114;5.654;2022-12-17T15:06:29;0.30;99.90
40434;DHT22;26146;51.114;5.654;2022-12-17T15:10:30;0.30;99.90
40434;DHT22;26146;51.114;5.654;2022-12-17T15:14:31;0.40;99.90
40434;DHT22;26146;51.114;5.654;2022-12-17T15:18:32;0.40;99.90
40434;DHT22;26146;51.114;5.654;2022-12-17T15:22:35;0.60;99.90
40434;DHT22;26146;51.114;5.654;2022-12-17T15:26:39;0.50;99.90
40434;DHT22;26146;51.114;5.654;2022-12-17T15:30:40;0.80;99.90
40434;DHT22;26146;51.114;5.654;2022-12-17T15:34:41;0.60;99.90
40434;DHT22;26146;51.114;5.654;2022-12-17T15:38:42;0.60;99.90
40434;DHT22;26146;51.114;5.654;2022-12-17T15:42:43;0.50;99.90
40434;DHT22;26146;51.114;5.654;2022-12-17T15:47:02;0.30;99.90
40434;DHT22;26146;51.114;5.654;2022-12-17T15:51:03;0.60;99.90
40434;DHT22;26146;51.114;5.654;2022-12-17T15:55:05;0.40;99.90
40434;DHT22;26146;51.114;5.654;2022-12-17T15:59:06;0.30;99.90
40434;DHT22;26146;51.114;5.654;2022-12-17T16:03:07;0.40;99.90
40434;DHT22;26146;51.114;5.654;2022-12-17T16:07:08;0.40;99.90
40434;DHT22;26146;51.114;5.654;2022-12-17T16:11:11;0.50;99.90
40434;DHT22;26146;51.114;5.654;2022-12-17T16:15:12;0.40;99.90
40434;DHT22;26146;51.114;5.654;2022-12-17T16:19:28;0.50;99.90
40434;DHT22;26146;51.114;5.654;2022-12-17T16:23:30;0.60;99.90
40434;DHT22;26146;51.114;5.654;2022-12-17T16:27:31;0.60;99.90
40434;DHT22;26146;51.114;5.654;2022-12-17T16:31:32;0.30;99.90
40434;DHT22;26146;51.114;5.654;2022-12-17T16:35:33;0.10;99.90
40434;DHT22;26146;51.114;5.654;2022-12-17T16:39:34;-0.20;99.90
40434;DHT22;26146;51.114;5.654;2022-12-17T16:43:35;0.20;99.90
40434;DHT22;26146;51.114;5.654;2022-12-17T16:47:39;0.10;99.90
40434;DHT22;26146;51.114;5.654;2022-12-17T16:52:15;0.00;99.90
40434;DHT22;26146;51.114;5.654;2022-12-17T16:56:19;0.10;99.90
40434;DHT22;26146;51.114;5.654;2022-12-17T17:00:20;0.10;99.90
40434;DHT22;26146;51.114;5.654;2022-12-17T17:04:21;0.10;99.90
40434;DHT22;26146;51.114;5.654;2022-12-17T17:08:22;0.10;99.90
40434;DHT22;26146;51.114;5.654;2022-12-17T17:12:23;-0.20;99.90
40434;DHT22;26146;51.114;5.654;2022-12-17T17:16:26;-0.40;99.90
40434;DHT22;26146;51.114;5.654;2022-12-17T17:20:27;-0.40;99.90
40434;DHT22;26146;51.114;5.654;2022-12-17T17:24:31;-0.20;99.90
40434;DHT22;26146;51.114;5.654;2022-12-17T17:28:32;-0.30;99.90
40434;DHT22;26146;51.114;5.654;2022-12-17T17:32:33;-0.40;99.90
40434;DHT22;26146;51.114;5.654;2022-12-17T17:36:34;-0.40;99.90
40434;DHT22;26146;51.114;5.654;2022-12-17T17:40:35;-0.40;99.90
40434;DHT22;26146;51.114;5.654;2022-12-17T17:44:36;-0.10;99.90
40434;DHT22;26146;51.114;5.654;2022-12-17T17:48:38;-0.30;99.90
40434;DHT22;26146;51.114;5.654;2022-12-17T17:52:39;-0.60;99.90
40434;DHT22;26146;51.114;5.654;2022-12-17T17:56:41;-0.70;99.90
40434;DHT22;26146;51.114;5.654;2022-12-17T18:00:42;-0.70;99.90
40434;DHT22;26146;51.114;5.654;2022-12-17T18:04:43;-0.60;99.90
40434;DHT22;26146;51.114;5.654;2022-12-17T18:09:13;-0.80;99.90
40434;DHT22;26146;51.114;5.654;2022-12-17T18:13:14;-0.90;99.90
40434;DHT22;26146;51.114;5.654;2022-12-17T18:17:34;-0.90;99.90
40434;DHT22;26146;51.114;5.654;2022-12-17T18:21:35;-0.80;99.90
40434;DHT22;26146;51.114;5.654;2022-12-17T18:25:36;-0.80;99.90
40434;DHT22;26146;51.114;5.654;2022-12-17T18:29:37;-0.70;99.90
40434;DHT22;26146;51.114;5.654;2022-12-17T18:33:41;-0.80;99.90
40434;DHT22;26146;51.114;5.654;2022-12-17T18:37:43;-0.80;99.90
40434;DHT22;26146;51.114;5.654;2022-12-17T18:41:44;-0.90;99.90
40434;DHT22;26146;51.114;5.654;2022-12-17T18:46:04;-0.80;99.90
40434;DHT22;26146;51.114;5.654;2022-12-17T18:50:05;-1.00;99.90
40434;DHT22;26146;51.114;5.654;2022-12-17T18:54:08;-1.00;99.90
40434;DHT22;26146;51.114;5.654;2022-12-17T18:58:12;-1.10;99.90
40434;DHT22;26146;51.114;5.654;2022-12-17T19:02:17;-1.20;99.90
40434;DHT22;26146;51.114;5.654;2022-12-17T19:06:19;-1.20;99.90
40434;DHT22;26146;51.114;5.654;2022-12-17T19:10:20;-1.20;99.90
40434;DHT22;26146;51.114;5.654;2022-12-17T19:14:29;-1.40;99.90
40434;DHT22;26146;51.114;5.654;2022-12-17T19:18:30;-1.30;99.90
40434;DHT22;26146;51.114;5.654;2022-12-17T19:22:31;-1.30;99.90
40434;DHT22;26146;51.114;5.654;2022-12-17T19:26:32;-1.30;99.90
40434;DHT22;26146;51.114;5.654;2022-12-17T19:30:33;-1.50;99.90
40434;DHT22;26146;51.114;5.654;2022-12-17T19:34:34;-1.50;99.90
40434;DHT22;26146;51.114;5.654;2022-12-17T19:38:35;-1.60;99.90
40434;DHT22;26146;51.114;5.654;2022-12-17T19:42:36;-1.60;99.90
40434;DHT22;26146;51.114;5.654;2022-12-17T19:46:37;-1.60;99.90
40434;DHT22;26146;51.114;5.654;2022-12-17T19:50:39;-1.60;99.90
40434;DHT22;26146;51.114;5.654;2022-12-17T19:54:40;-1.70;99.90
40434;DHT22;26146;51.114;5.654;2022-12-17T19:58:43;-1.80;99.90
40434;DHT22;26146;51.114;5.654;2022-12-17T20:02:44;-1.70;99.90
40434;DHT22;26146;51.114;5.654;2022-12-17T20:06:46;-1.70;99.90
40434;DHT22;26146;51.114;5.654;2022-12-17T20:10:47;-1.70;99.90
40434;DHT22;26146;51.114;5.654;2022-12-17T20:14:48;-1.70;99.90
40434;DHT22;26146;51.114;5.654;2022-12-17T20:18:49;-1.80;99.90
40434;DHT22;26146;51.114;5.654;2022-12-17T20:22:50;-1.80;99.90
40434;DHT22;26146;51.114;5.654;2022-12-17T20:26:52;-1.90;99.90
40434;DHT22;26146;51.114;5.654;2022-12-17T20:30:53;-2.00;99.90
40434;DHT22;26146;51.114;5.654;2022-12-17T20:34:54;-1.90;99.90
40434;DHT22;26146;51.114;5.654;2022-12-17T20:38:56;-1.80;99.90
40434;DHT22;26146;51.114;5.654;2022-12-17T20:42:57;-1.90;99.90
40434;DHT22;26146;51.114;5.654;2022-12-17T20:46:58;-2.00;99.90
40434;DHT22;26146;51.114;5.654;2022-12-17T20:51:06;-2.10;99.90
40434;DHT22;26146;51.114;5.654;2022-12-17T20:55:07;-2.00;99.90
40434;DHT22;26146;51.114;5.654;2022-12-17T20:59:13;-2.00;99.90
40434;DHT22;26146;51.114;5.654;2022-12-17T21:03:14;-2.00;99.90
40434;DHT22;26146;51.114;5.654;2022-12-17T21:07:15;-2.10;99.90
40434;DHT22;26146;51.114;5.654;2022-12-17T21:11:18;-2.20;99.90
40434;DHT22;26146;51.114;5.654;2022-12-17T21:15:20;-2.30;99.90
40434;DHT22;26146;51.114;5.654;2022-12-17T21:19:21;-2.40;99.90
40434;DHT22;26146;51.114;5.654;2022-12-17T21:23:23;-2.40;99.90
40434;DHT22;26146;51.114;5.654;2022-12-17T21:27:24;-2.50;99.90
40434;DHT22;26146;51.114;5.654;2022-12-17T21:31:29;-2.60;99.90
40434;DHT22;26146;51.114;5.654;2022-12-17T21:35:30;-2.60;99.90
40434;DHT22;26146;51.114;5.654;2022-12-17T21:39:31;-2.70;99.90
40434;DHT22;26146;51.114;5.654;2022-12-17T21:43:33;-2.70;99.90
40434;DHT22;26146;51.114;5.654;2022-12-17T21:47:34;-2.80;99.90
40434;DHT22;26146;51.114;5.654;2022-12-17T21:51:35;-2.90;99.90
40434;DHT22;26146;51.114;5.654;2022-12-17T21:55:36;-2.80;99.90
40434;DHT22;26146;51.114;5.654;2022-12-17T21:59:38;-2.80;99.90
40434;DHT22;26146;51.114;5.654;2022-12-17T22:03:39;-2.90;99.90
40434;DHT22;26146;51.114;5.654;2022-12-17T22:07:40;-3.00;99.90
40434;DHT22;26146;51.114;5.654;2022-12-17T22:11:41;-2.90;99.90
40434;DHT22;26146;51.114;5.654;2022-12-17T22:15:42;-3.10;99.90
40434;DHT22;26146;51.114;5.654;2022-12-17T22:19:43;-3.10;99.90
40434;DHT22;26146;51.114;5.654;2022-12-17T22:23:46;-3.10;99.90
40434;DHT22;26146;51.114;5.654;2022-12-17T22:27:47;-3.10;99.90
40434;DHT22;26146;51.114;5.654;2022-12-17T22:31:48;-3.20;99.90
40434;DHT22;26146;51.114;5.654;2022-12-17T22:36:08;-3.00;99.90
40434;DHT22;26146;51.114;5.654;2022-12-17T22:40:10;-3.20;99.90
40434;DHT22;26146;51.114;5.654;2022-12-17T22:44:11;-3.20;99.90
40434;DHT22;26146;51.114;5.654;2022-12-17T22:48:13;-3.10;99.90
40434;DHT22;26146;51.114;5.654;2022-12-17T22:52:14;-3.30;99.90
40434;DHT22;26146;51.114;5.654;2022-12-17T22:56:15;-3.40;99.90
40434;DHT22;26146;51.114;5.654;2022-12-17T23:00:21;-3.30;99.90
40434;DHT22;26146;51.114;5.654;2022-12-17T23:04:23;-3.40;99.90
40434;DHT22;26146;51.114;5.654;2022-12-17T23:08:23;-3.40;99.90
40434;DHT22;26146;51.114;5.654;2022-12-17T23:12:24;-3.50;99.90
40434;DHT22;26146;51.114;5.654;2022-12-17T23:16:44;-3.60;99.90
40434;DHT22;26146;51.114;5.654;2022-12-17T23:20:45;-3.60;99.90
40434;DHT22;26146;51.114;5.654;2022-12-17T23:24:48;-3.60;99.90
40434;DHT22;26146;51.114;5.654;2022-12-17T23:28:52;-3.70;99.90
40434;DHT22;26146;51.114;5.654;2022-12-17T23:32:54;-3.70;99.90
40434;DHT22;26146;51.114;5.654;2022-12-17T23:36:55;-3.70;99.90
40434;DHT22;26146;51.114;5.654;2022-12-17T23:41:04;-3.70;99.90
40434;DHT22;26146;51.114;5.654;2022-12-17T23:45:06;-3.80;99.90
40434;DHT22;26146;51.114;5.654;2022-12-17T23:49:07;-3.80;99.90
40434;DHT22;26146;51.114;5.654;2022-12-17T23:53:09;-3.70;99.90
40434;DHT22;26146;51.114;5.654;2022-12-17T23:57:10;-3.70;99.90
